Time;durP1;ratioP1;P1;durP2;ratioP2;P2;SDS_P1;SDS_P2;PMS_P1;PMS_P2;Temp;Humidity;BMP_temperature;BMP_pressure;BME280_temperature;BME280_humidity;BME280_pressure;Samples;Min_cycle;Max_cycle;Signal;HPM_P1;HPM_P2
2023/10/21 00:06:55;;;;;;;22.80;16.80;;;;;;;7.91;100.00;97204.92;431362;1270;139569;-65
2023/10/21 00:17:00;;;;;;;19.90;17.10;;;;;;;7.99;100.00;97234.81;431120;1270;139503;-65
2023/10/21 00:27:06;;;;;;;21.00;15.50;;;;;;;8.07;100.00;97245.05;430909;1270;140922;-64
2023/10/21 00:37:13;;;;;;;17.40;15.50;;;;;;;8.14;100.00;97244.60;430796;1268;140069;-65
2023/10/21 00:47:19;;;;;;;17.40;15.10;;;;;;;8.22;100.00;97235.86;431310;1268;139140;-64
2023/10/21 00:57:26;;;;;;;19.10;16.80;;;;;;;8.29;100.00;97220.58;430879;1272;139524;-64
2023/10/21 01:08:00;;;;;;;18.40;15.60;;;;;;;8.37;100.00;97232.23;431997;1273;139645;-65
2023/10/21 01:18:07;;;;;;;21.80;16.60;;;;;;;8.45;100.00;97230.98;430586;1270;139654;-65
2023/10/21 01:28:14;;;;;;;19.00;16.50;;;;;;;8.52;100.00;97232.84;431706;1272;139955;-65
2023/10/21 01:38:20;;;;;;;23.50;18.00;;;;;;;8.55;100.00;97244.41;432077;1270;140824;-65
2023/10/21 01:48:26;;;;;;;19.30;16.70;;;;;;;8.58;100.00;97244.65;430760;1272;140805;-65
2023/10/21 01:58:32;;;;;;;27.30;19.00;;;;;;;8.62;100.00;97262.05;430825;1271;139330;-64
2023/10/21 02:08:38;;;;;;;20.80;16.90;;;;;;;8.66;100.00;97271.97;431793;1269;140703;-65
2023/10/21 02:18:44;;;;;;;20.00;17.90;;;;;;;8.74;100.00;97285.62;430723;1272;139506;-65
2023/10/21 02:28:50;;;;;;;20.10;17.70;;;;;;;8.80;100.00;97290.09;430758;1272;139316;-65
2023/10/21 02:38:56;;;;;;;25.50;18.80;;;;;;;8.87;100.00;97300.11;430710;1270;140658;-65
2023/10/21 02:49:02;;;;;;;24.50;19.50;;;;;;;8.95;100.00;97320.61;430767;1271;140095;-64
2023/10/21 02:59:08;;;;;;;20.20;18.00;;;;;;;9.02;100.00;97330.45;430768;1270;139179;-65
2023/10/21 03:09:16;;;;;;;21.70;18.60;;;;;;;9.09;100.00;97341.65;430844;1273;139478;-65
2023/10/21 03:19:22;;;;;;;22.90;19.10;;;;;;;9.16;100.00;97347.96;431944;1270;139807;-65
2023/10/21 03:29:28;;;;;;;22.00;19.20;;;;;;;9.21;100.00;97328.31;430915;1270;139380;-65
2023/10/21 03:39:34;;;;;;;23.40;19.10;;;;;;;9.23;100.00;97311.02;430688;1270;140326;-64
2023/10/21 03:49:40;;;;;;;22.90;18.90;;;;;;;9.24;100.00;97331.11;430675;1272;139930;-65
2023/10/21 03:59:45;;;;;;;21.40;18.70;;;;;;;9.27;100.00;97330.73;431017;1270;139365;-66
2023/10/21 04:09:52;;;;;;;24.80;19.20;;;;;;;9.30;100.00;97341.84;430794;1270;140040;-65
2023/10/21 04:19:58;;;;;;;24.90;20.20;;;;;;;9.34;100.00;97350.64;431233;1273;139533;-64
2023/10/21 04:30:07;;;;;;;27.60;22.00;;;;;;;9.39;100.00;97374.79;431328;1273;139284;-65
2023/10/21 04:40:15;;;;;;;23.40;20.00;;;;;;;9.44;100.00;97370.85;432447;1271;140170;-66
2023/10/21 04:50:21;;;;;;;24.20;21.70;;;;;;;9.49;100.00;97385.25;431323;1273;139507;-65
2023/10/21 05:00:28;;;;;;;22.90;18.90;;;;;;;9.49;100.00;97400.20;430752;1272;140402;-64
2023/10/21 05:10:35;;;;;;;26.00;20.30;;;;;;;9.47;100.00;97389.42;431429;1270;139427;-64
2023/10/21 05:20:41;;;;;;;26.10;20.80;;;;;;;9.44;100.00;97414.73;430729;1270;139942;-65
2023/10/21 05:30:47;;;;;;;25.50;20.10;;;;;;;9.43;100.00;97431.71;430603;1273;139516;-65
2023/10/21 05:40:53;;;;;;;23.10;19.40;;;;;;;9.48;100.00;97484.52;430822;1270;139608;-66
2023/10/21 05:51:02;;;;;;;25.50;22.80;;;;;;;9.58;100.00;97509.80;430871;1272;139261;-65
2023/10/21 06:01:10;;;;;;;23.40;20.00;;;;;;;9.67;100.00;97508.12;431282;1272;139387;-65
2023/10/21 06:11:15;;;;;;;;;;;;;;;9.76;100.00;97548.27;432782;1270;140159;-66
2023/10/21 06:21:21;;;;;;;25.70;21.20;;;;;;;9.85;100.00;97595.39;431184;1271;125276;-66
2023/10/21 06:31:27;;;;;;;28.20;23.80;;;;;;;9.88;100.00;97592.83;431280;1270;140141;-66
2023/10/21 06:41:34;;;;;;;25.90;21.80;;;;;;;9.91;100.00;97589.58;431044;1270;139988;-66
2023/10/21 06:51:55;;;;;;;26.10;23.20;;;;;;;10.01;100.00;97572.35;430542;1273;391391;-65
2023/10/21 07:02:01;;;;;;;26.80;24.00;;;;;;;10.19;100.00;97594.63;430891;1273;140483;-65
2023/10/21 07:12:11;;;;;;;28.60;24.30;;;;;;;10.31;100.00;97625.06;432020;1270;139551;-65
2023/10/21 07:22:16;;;;;;;26.50;21.50;;;;;;;10.39;100.00;97661.23;431491;1273;140545;-66
2023/10/21 07:32:24;;;;;;;34.70;31.00;;;;;;;10.50;100.00;97666.48;430892;1271;142460;-65
2023/10/21 07:42:30;;;;;;;30.90;26.60;;;;;;;10.72;100.00;97667.09;430571;1272;140477;-65
2023/10/21 07:52:37;;;;;;;30.70;26.60;;;;;;;10.94;100.00;97663.69;430476;1272;139607;-66
2023/10/21 08:02:44;;;;;;;29.30;25.90;;;;;;;11.09;100.00;97656.88;431779;1273;139832;-66
2023/10/21 08:12:50;;;;;;;27.50;24.70;;;;;;;11.54;100.00;97669.34;431404;1272;141019;-65
2023/10/21 08:22:56;;;;;;;28.30;22.80;;;;;;;11.98;100.00;97711.25;431603;1272;139431;-65
2023/10/21 08:33:02;;;;;;;45.40;33.60;;;;;;;12.15;100.00;97756.45;431137;1272;139551;-65
2023/10/21 08:43:09;;;;;;;33.40;29.70;;;;;;;12.32;100.00;97770.56;430469;1272;140628;-65
2023/10/21 08:53:15;;;;;;;36.00;29.40;;;;;;;12.69;100.00;97798.14;430689;1271;139516;-65
2023/10/21 09:03:23;;;;;;;37.40;30.40;;;;;;;13.11;100.00;97807.79;430592;1271;139475;-65
2023/10/21 09:13:33;;;;;;;35.50;28.60;;;;;;;13.54;100.00;97835.55;431294;1272;139591;-65
2023/10/21 09:23:51;;;;;;;30.30;26.20;;;;;;;13.81;100.00;97861.55;430527;1272;139641;-66
2023/10/21 09:33:57;;;;;;;26.00;22.40;;;;;;;14.46;100.00;97860.73;430626;1273;139660;-66
2023/10/21 09:44:06;;;;;;;26.30;23.20;;;;;;;15.18;100.00;97863.14;430661;1271;139604;-66
2023/10/21 09:54:16;;;;;;;25.60;23.00;;;;;;;15.41;100.00;97892.73;430907;1272;139472;-67
2023/10/21 10:04:26;;;;;;;26.10;23.50;;;;;;;16.04;100.00;97880.60;431018;1272;139400;-65
2023/10/21 10:14:33;;;;;;;26.70;24.00;;;;;;;16.08;100.00;97904.34;430572;1272;140428;-66
2023/10/21 10:24:45;;;;;;;27.50;24.10;;;;;;;15.84;100.00;97916.92;430860;1273;139816;-66
2023/10/21 10:34:57;;;;;;;28.60;25.30;;;;;;;15.43;100.00;97930.77;431130;1273;139468;-65
2023/10/21 10:45:03;;;;;;;28.70;26.00;;;;;;;15.27;100.00;97945.77;430569;1270;140467;-67
2023/10/21 10:55:15;;;;;;;31.00;27.70;;;;;;;15.37;100.00;97955.42;431270;1272;139624;-67
2023/10/21 11:05:22;;;;;;;29.40;26.00;;;;;;;15.54;100.00;97965.58;431112;1273;139644;-67
2023/10/21 11:15:29;;;;;;;24.90;22.30;;;;;;;15.90;100.00;97974.29;432028;1271;140563;-66
2023/10/21 11:25:35;;;;;;;22.80;20.50;;;;;;;16.52;100.00;97976.14;431094;1272;139532;-66
2023/10/21 11:35:44;;;;;;;23.10;19.70;;;;;;;16.68;100.00;97988.19;431064;1272;140244;-66
2023/10/21 11:45:54;;;;;;;22.60;20.40;;;;;;;16.50;100.00;97996.33;431025;1272;140296;-66
2023/10/21 12:17:07;;;;;;;20.00;17.80;;;;;;;16.33;100.00;98034.79;430588;1273;139682;-66
2023/10/21 12:48:19;;;;;;;17.60;15.80;;;;;;;16.49;100.00;98082.27;428482;1277;139779;-66
2023/10/21 12:58:25;;;;;;;17.10;15.40;;;;;;;16.51;100.00;98093.92;428319;1277;139770;-67
2023/10/21 13:08:31;;;;;;;17.00;14.40;;;;;;;16.53;100.00;98111.55;429514;1273;141193;-67
2023/10/21 13:18:37;;;;;;;15.60;12.00;;;;;;;16.58;100.00;98131.70;431266;1273;143203;-65
2023/10/21 13:28:43;;;;;;;12.70;11.60;;;;;;;16.67;100.00;98145.46;430893;1273;139735;-66
2023/10/21 13:38:49;;;;;;;14.10;12.60;;;;;;;16.72;100.00;98160.20;430842;1273;140442;-67
2023/10/21 13:48:57;;;;;;;16.90;14.40;;;;;;;16.68;100.00;98169.05;431025;1270;139755;-66
2023/10/21 13:59:06;;;;;;;16.90;14.30;;;;;;;16.63;100.00;98175.84;431264;1273;139674;-66
2023/10/21 14:09:22;;;;;;;16.10;14.40;;;;;;;16.58;100.00;98194.70;431217;1270;140040;-67
2023/10/21 14:19:29;;;;;;;18.10;16.50;;;;;;;16.47;100.00;98208.05;431171;1272;139846;-66
2023/10/21 14:29:36;;;;;;;19.00;16.90;;;;;;;16.34;100.00;98215.02;430758;1272;139510;-66
2023/10/21 14:39:42;;;;;;;22.60;18.40;;;;;;;16.15;100.00;98237.35;430782;1273;139728;-66
2023/10/21 14:49:48;;;;;;;20.30;18.10;;;;;;;15.96;100.00;98243.95;431216;1271;139438;-67
2023/10/21 14:59:54;;;;;;;21.20;18.90;;;;;;;15.75;100.00;98250.90;431581;1270;139781;-65
2023/10/21 15:10:01;;;;;;;26.00;21.40;;;;;;;15.54;100.00;98266.92;431434;1272;140924;-65
2023/10/21 15:20:09;;;;;;;24.30;21.80;;;;;;;15.28;100.00;98273.88;430683;1270;141302;-66
2023/10/21 15:30:16;;;;;;;21.50;18.60;;;;;;;14.92;100.00;98277.25;431222;1270;139792;-66
2023/10/21 15:40:27;;;;;;;26.90;23.80;;;;;;;14.45;100.00;98295.84;431348;1272;140441;-65
2023/10/21 15:50:32;;;;;;;25.30;22.30;;;;;;;14.04;100.00;98297.83;432409;1270;140868;-66
2023/10/21 16:00:38;;;;;;;41.90;37.70;;;;;;;13.70;100.00;98313.02;430872;1272;139959;-65
2023/10/21 16:10:44;;;;;;;47.00;41.50;;;;;;;13.41;100.00;98328.78;430517;1270;139510;-65
2023/10/21 16:20:50;;;;;;;39.50;35.30;;;;;;;13.11;100.00;98343.41;430316;1270;140880;-65
2023/10/21 16:30:57;;;;;;;49.40;43.50;;;;;;;12.87;100.00;98372.45;431677;1268;140208;-66
2023/10/21 16:41:03;;;;;;;49.80;44.00;;;;;;;12.58;100.00;98391.66;430741;1270;139435;-68
2023/10/21 16:51:09;;;;;;;44.50;39.90;;;;;;;12.40;100.00;98408.39;431166;1272;142879;-66
2023/10/21 17:01:17;;;;;;;32.00;28.50;;;;;;;12.10;100.00;98420.80;430750;1272;140506;-67
2023/10/21 17:11:23;;;;;;;41.80;37.30;;;;;;;11.65;100.00;98423.49;431440;1273;139349;-63
2023/10/21 17:21:29;;;;;;;45.10;36.70;;;;;;;11.39;100.00;98437.68;431151;1272;139658;-67
2023/10/21 17:31:34;;;;;;;69.00;61.60;;;;;;;11.07;100.00;98436.83;430680;1273;139880;-66
2023/10/21 17:41:40;;;;;;;53.40;46.80;;;;;;;11.01;100.00;98432.73;430578;1273;140854;-67
2023/10/21 17:51:48;;;;;;;64.70;56.50;;;;;;;10.79;100.00;98436.66;430456;1271;139681;-67
2023/10/21 18:01:55;;;;;;;60.60;52.50;;;;;;;10.65;100.00;98438.77;430424;1271;140896;-66
2023/10/21 18:12:01;;;;;;;60.30;50.00;;;;;;;10.43;100.00;98448.70;430820;1271;139591;-65
2023/10/21 18:22:07;;;;;;;69.50;58.10;;;;;;;10.20;100.00;98469.95;430436;1272;140649;-66
2023/10/21 18:32:15;;;;;;;84.20;74.90;;;;;;;10.47;100.00;98485.20;430252;1270;139811;-65
2023/10/21 18:42:20;;;;;;;83.30;72.70;;;;;;;10.79;100.00;98492.88;430702;1270;139304;-65
2023/10/21 18:52:26;;;;;;;64.30;57.40;;;;;;;10.91;100.00;98508.88;430275;1271;155296;-66
2023/10/21 19:02:32;;;;;;;59.60;51.30;;;;;;;10.72;100.00;98524.10;430442;1270;140036;-66
2023/10/21 19:12:41;;;;;;;78.70;69.20;;;;;;;10.29;100.00;98535.20;431217;1272;139566;-65
2023/10/21 19:22:47;;;;;;;69.50;60.40;;;;;;;10.34;100.00;98553.65;430477;1271;139426;-64
2023/10/21 19:32:53;;;;;;;67.20;58.80;;;;;;;10.16;100.00;98563.31;430515;1270;139395;-66
2023/10/21 19:43:00;;;;;;;73.40;64.40;;;;;;;10.01;100.00;98561.66;430325;1270;192697;-64
2023/10/21 19:53:05;;;;;;;75.70;66.80;;;;;;;9.94;100.00;98563.27;431127;1273;139736;-65
2023/10/21 20:03:11;;;;;;;70.40;62.20;;;;;;;10.07;100.00;98552.85;430939;1270;139815;-66
2023/10/21 20:13:19;;;;;;;68.00;58.30;;;;;;;10.15;100.00;98544.35;430713;1269;139733;-65
2023/10/21 20:23:24;;;;;;;73.00;63.00;;;;;;;10.16;100.00;98546.34;431627;1270;139635;-65
2023/10/21 20:33:31;;;;;;;71.20;56.60;;;;;;;10.31;100.00;98546.55;431340;1270;140045;-64
2023/10/21 20:43:38;;;;;;;62.30;55.50;;;;;;;10.43;100.00;98536.36;431298;1270;140639;-64
2023/10/21 20:53:44;;;;;;;61.80;50.60;;;;;;;10.51;100.00;98532.30;431157;1270;139494;-64
2023/10/21 21:03:50;;;;;;;63.60;53.80;;;;;;;10.65;100.00;98533.56;430934;1271;139754;-65
2023/10/21 21:13:56;;;;;;;60.60;50.50;;;;;;;10.87;100.00;98531.65;431009;1270;200044;-65
2023/10/21 21:24:05;;;;;;;59.70;49.90;;;;;;;10.98;100.00;98519.69;431358;1273;140514;-64
2023/10/21 21:34:11;;;;;;;57.60;50.20;;;;;;;11.07;100.00;98514.02;430623;1271;140897;-66
2023/10/21 21:44:17;;;;;;;65.00;49.00;;;;;;;11.25;100.00;98511.17;430627;1270;140019;-65
2023/10/21 21:54:23;;;;;;;49.70;42.30;;;;;;;11.32;100.00;98509.21;430719;1270;139505;-64
2023/10/21 22:04:30;;;;;;;47.00;41.80;;;;;;;11.35;100.00;98514.69;430693;1272;140619;-66
2023/10/21 22:14:37;;;;;;;44.90;39.30;;;;;;;11.40;100.00;98512.70;431586;1270;140757;-65
2023/10/21 22:24:43;;;;;;;43.00;38.30;;;;;;;11.51;100.00;98510.23;430502;1270;140749;-64
2023/10/21 22:34:49;;;;;;;44.90;38.30;;;;;;;11.63;100.00;98501.82;430762;1273;140631;-65
2023/10/21 22:44:55;;;;;;;42.10;37.60;;;;;;;11.76;100.00;98489.02;430528;1273;139769;-65
2023/10/21 22:55:01;;;;;;;40.20;33.90;;;;;;;11.92;100.00;98473.79;430459;1273;140793;-65
2023/10/21 23:05:09;;;;;;;31.00;27.70;;;;;;;11.96;100.00;98471.73;431116;1270;140525;-66
2023/10/21 23:15:15;;;;;;;26.70;24.10;;;;;;;11.95;100.00;98486.68;430855;1272;140916;-65
2023/10/21 23:25:21;;;;;;;24.90;22.40;;;;;;;11.95;100.00;98504.38;430455;1272;140777;-66
2023/10/21 23:35:27;;;;;;;22.50;19.30;;;;;;;11.96;100.00;98506.76;430650;1273;140335;-65
2023/10/21 23:45:34;;;;;;;23.60;21.20;;;;;;;12.14;100.00;98494.67;430598;1270;141299;-65
2023/10/21 23:55:40;;;;;;;33.20;29.30;;;;;;;12.48;100.00;98483.30;430724;1271;140816;-65
